Terminal Aerodrome Forecast
Issued by NWS

Home | Current Version | Previous Version | Text Only | Print | Product List | Glossary On
Versions: 1 2 3 4 5 6 7 8 9 10 11 12 13
915
FTUS45 KABQ 142323
TAFFMN
TAF
KFMN 142323Z 1500/1524 29012G22KT P6SM BKN200
     FM150100 29011KT P6SM FEW200
     FM150600 VRB05KT P6SM FEW200
     FM152100 28011G21KT P6SM FEW200=

USA.gov is the U.S. government's official web portal to all federal, state and local government web resources and services.